sensor_id;sensor_type;location;lat;lon;timestamp;P1;durP1;ratioP1;P2;durP2;ratioP2
73919;SDS011;62266;53.348;-1.496;2024-01-16T00:00:43;2.43;;;1.33;;
73919;SDS011;62266;53.348;-1.496;2024-01-16T00:03:27;3.50;;;1.10;;
73919;SDS011;62266;53.348;-1.496;2024-01-16T00:06:12;2.75;;;1.23;;
73919;SDS011;62266;53.348;-1.496;2024-01-16T00:08:56;2.83;;;1.30;;
73919;SDS011;62266;53.348;-1.496;2024-01-16T00:11:40;3.08;;;1.15;;
73919;SDS011;62266;53.348;-1.496;2024-01-16T00:14:25;1.90;;;1.23;;
73919;SDS011;62266;53.348;-1.496;2024-01-16T00:17:09;4.88;;;1.20;;
73919;SDS011;62266;53.348;-1.496;2024-01-16T00:19:53;4.07;;;1.45;;
73919;SDS011;62266;53.348;-1.496;2024-01-16T00:22:38;3.20;;;1.38;;
73919;SDS011;62266;53.348;-1.496;2024-01-16T00:25:22;3.95;;;1.75;;
73919;SDS011;62266;53.348;-1.496;2024-01-16T00:28:07;3.03;;;1.17;;
73919;SDS011;62266;53.348;-1.496;2024-01-16T00:30:53;4.00;;;1.08;;
73919;SDS011;62266;53.348;-1.496;2024-01-16T00:33:37;4.88;;;1.70;;
73919;SDS011;62266;53.348;-1.496;2024-01-16T00:36:21;3.83;;;1.50;;
73919;SDS011;62266;53.348;-1.496;2024-01-16T00:39:06;4.85;;;1.92;;
73919;SDS011;62266;53.348;-1.496;2024-01-16T00:41:51;5.27;;;1.63;;
73919;SDS011;62266;53.348;-1.496;2024-01-16T00:44:35;2.22;;;1.42;;
73919;SDS011;62266;53.348;-1.496;2024-01-16T00:47:19;8.35;;;2.03;;
73919;SDS011;62266;53.348;-1.496;2024-01-16T00:50:03;4.97;;;1.60;;
73919;SDS011;62266;53.348;-1.496;2024-01-16T00:52:48;4.85;;;1.55;;
73919;SDS011;62266;53.348;-1.496;2024-01-16T00:55:32;4.67;;;1.47;;
73919;SDS011;62266;53.348;-1.496;2024-01-16T00:58:16;4.57;;;1.98;;
73919;SDS011;62266;53.348;-1.496;2024-01-16T01:01:00;4.28;;;2.05;;
73919;SDS011;62266;53.348;-1.496;2024-01-16T01:03:44;3.25;;;1.50;;
73919;SDS011;62266;53.348;-1.496;2024-01-16T01:06:28;3.72;;;1.70;;
73919;SDS011;62266;53.348;-1.496;2024-01-16T01:09:12;3.63;;;1.53;;
73919;SDS011;62266;53.348;-1.496;2024-01-16T01:11:57;4.85;;;2.03;;
73919;SDS011;62266;53.348;-1.496;2024-01-16T01:14:41;3.20;;;2.00;;
73919;SDS011;62266;53.348;-1.496;2024-01-16T01:17:25;5.93;;;2.15;;
73919;SDS011;62266;53.348;-1.496;2024-01-16T01:20:09;6.63;;;2.15;;
73919;SDS011;62266;53.348;-1.496;2024-01-16T01:22:55;5.07;;;2.43;;
73919;SDS011;62266;53.348;-1.496;2024-01-16T01:25:40;4.93;;;1.80;;
73919;SDS011;62266;53.348;-1.496;2024-01-16T01:28:24;6.85;;;1.90;;
73919;SDS011;62266;53.348;-1.496;2024-01-16T01:31:08;3.45;;;1.98;;
73919;SDS011;62266;53.348;-1.496;2024-01-16T01:33:53;3.92;;;1.90;;
73919;SDS011;62266;53.348;-1.496;2024-01-16T01:36:37;5.83;;;2.27;;
73919;SDS011;62266;53.348;-1.496;2024-01-16T01:39:22;5.30;;;2.10;;
73919;SDS011;62266;53.348;-1.496;2024-01-16T01:42:06;5.28;;;2.35;;
73919;SDS011;62266;53.348;-1.496;2024-01-16T01:44:50;8.63;;;2.17;;
73919;SDS011;62266;53.348;-1.496;2024-01-16T01:47:34;5.25;;;2.47;;
73919;SDS011;62266;53.348;-1.496;2024-01-16T01:50:18;4.47;;;2.10;;
73919;SDS011;62266;53.348;-1.496;2024-01-16T01:53:03;5.88;;;2.15;;
73919;SDS011;62266;53.348;-1.496;2024-01-16T01:55:47;6.20;;;2.30;;
73919;SDS011;62266;53.348;-1.496;2024-01-16T01:58:32;3.83;;;2.15;;
73919;SDS011;62266;53.348;-1.496;2024-01-16T02:01:19;3.80;;;2.40;;
73919;SDS011;62266;53.348;-1.496;2024-01-16T02:04:06;8.17;;;2.60;;
73919;SDS011;62266;53.348;-1.496;2024-01-16T02:06:50;4.70;;;2.70;;
73919;SDS011;62266;53.348;-1.496;2024-01-16T02:09:34;4.82;;;2.40;;
73919;SDS011;62266;53.348;-1.496;2024-01-16T02:12:18;5.13;;;2.92;;
73919;SDS011;62266;53.348;-1.496;2024-01-16T02:15:02;3.85;;;2.08;;
73919;SDS011;62266;53.348;-1.496;2024-01-16T02:17:47;4.47;;;2.33;;
73919;SDS011;62266;53.348;-1.496;2024-01-16T02:20:33;9.40;;;3.83;;
73919;SDS011;62266;53.348;-1.496;2024-01-16T02:23:21;12.70;;;4.25;;
73919;SDS011;62266;53.348;-1.496;2024-01-16T02:26:10;8.43;;;3.47;;
73919;SDS011;62266;53.348;-1.496;2024-01-16T02:28:54;9.15;;;2.38;;
73919;SDS011;62266;53.348;-1.496;2024-01-16T02:31:38;4.60;;;2.27;;
73919;SDS011;62266;53.348;-1.496;2024-01-16T02:34:22;6.13;;;2.38;;
73919;SDS011;62266;53.348;-1.496;2024-01-16T02:37:06;5.45;;;2.40;;
73919;SDS011;62266;53.348;-1.496;2024-01-16T02:39:51;4.28;;;1.95;;
73919;SDS011;62266;53.348;-1.496;2024-01-16T02:42:35;6.72;;;1.73;;
73919;SDS011;62266;53.348;-1.496;2024-01-16T02:45:21;6.53;;;2.37;;
73919;SDS011;62266;53.348;-1.496;2024-01-16T02:48:06;4.30;;;1.98;;
73919;SDS011;62266;53.348;-1.496;2024-01-16T02:50:50;4.60;;;2.03;;
73919;SDS011;62266;53.348;-1.496;2024-01-16T02:53:34;5.53;;;1.88;;
73919;SDS011;62266;53.348;-1.496;2024-01-16T02:56:19;4.50;;;2.35;;
73919;SDS011;62266;53.348;-1.496;2024-01-16T02:59:03;4.37;;;2.30;;
73919;SDS011;62266;53.348;-1.496;2024-01-16T03:01:47;6.57;;;2.00;;
73919;SDS011;62266;53.348;-1.496;2024-01-16T03:04:31;4.97;;;2.13;;
73919;SDS011;62266;53.348;-1.496;2024-01-16T03:07:15;4.03;;;1.58;;
73919;SDS011;62266;53.348;-1.496;2024-01-16T03:09:59;4.28;;;1.70;;
73919;SDS011;62266;53.348;-1.496;2024-01-16T03:12:43;5.13;;;1.60;;
73919;SDS011;62266;53.348;-1.496;2024-01-16T03:15:27;5.20;;;2.13;;
73919;SDS011;62266;53.348;-1.496;2024-01-16T03:18:13;6.13;;;1.80;;
73919;SDS011;62266;53.348;-1.496;2024-01-16T03:20:58;5.95;;;1.63;;
73919;SDS011;62266;53.348;-1.496;2024-01-16T03:23:43;2.72;;;1.52;;
73919;SDS011;62266;53.348;-1.496;2024-01-16T03:26:28;3.07;;;1.47;;
73919;SDS011;62266;53.348;-1.496;2024-01-16T03:29:12;4.10;;;0.98;;
73919;SDS011;62266;53.348;-1.496;2024-01-16T03:31:57;1.80;;;0.93;;
73919;SDS011;62266;53.348;-1.496;2024-01-16T03:34:41;3.22;;;0.90;;
73919;SDS011;62266;53.348;-1.496;2024-01-16T03:37:25;3.00;;;1.15;;
73919;SDS011;62266;53.348;-1.496;2024-01-16T03:40:09;2.80;;;1.10;;
73919;SDS011;62266;53.348;-1.496;2024-01-16T03:42:55;4.03;;;1.23;;
73919;SDS011;62266;53.348;-1.496;2024-01-16T03:45:39;2.60;;;1.30;;
73919;SDS011;62266;53.348;-1.496;2024-01-16T03:48:23;3.88;;;1.55;;
73919;SDS011;62266;53.348;-1.496;2024-01-16T03:51:07;2.28;;;1.58;;
73919;SDS011;62266;53.348;-1.496;2024-01-16T03:53:51;2.83;;;1.43;;
73919;SDS011;62266;53.348;-1.496;2024-01-16T03:56:35;4.93;;;1.70;;
73919;SDS011;62266;53.348;-1.496;2024-01-16T03:59:19;2.22;;;1.63;;
73919;SDS011;62266;53.348;-1.496;2024-01-16T04:02:03;5.10;;;2.05;;
73919;SDS011;62266;53.348;-1.496;2024-01-16T04:04:48;5.05;;;2.45;;
73919;SDS011;62266;53.348;-1.496;2024-01-16T04:07:32;3.40;;;1.97;;
73919;SDS011;62266;53.348;-1.496;2024-01-16T04:10:16;4.82;;;2.50;;
73919;SDS011;62266;53.348;-1.496;2024-01-16T04:13:01;4.25;;;2.28;;
73919;SDS011;62266;53.348;-1.496;2024-01-16T04:15:46;4.63;;;2.72;;
73919;SDS011;62266;53.348;-1.496;2024-01-16T04:18:29;7.22;;;3.40;;
73919;SDS011;62266;53.348;-1.496;2024-01-16T04:21:19;9.73;;;3.70;;
73919;SDS011;62266;53.348;-1.496;2024-01-16T04:24:03;8.80;;;4.18;;
73919;SDS011;62266;53.348;-1.496;2024-01-16T04:26:47;8.63;;;4.90;;
73919;SDS011;62266;53.348;-1.496;2024-01-16T04:29:31;9.85;;;5.03;;
73919;SDS011;62266;53.348;-1.496;2024-01-16T04:32:16;10.88;;;4.63;;
73919;SDS011;62266;53.348;-1.496;2024-01-16T04:35:00;11.03;;;5.03;;
73919;SDS011;62266;53.348;-1.496;2024-01-16T04:37:44;12.40;;;6.03;;
73919;SDS011;62266;53.348;-1.496;2024-01-16T04:40:28;12.25;;;6.20;;
73919;SDS011;62266;53.348;-1.496;2024-01-16T04:43:12;12.38;;;6.45;;
73919;SDS011;62266;53.348;-1.496;2024-01-16T04:45:56;12.23;;;6.30;;
73919;SDS011;62266;53.348;-1.496;2024-01-16T04:48:41;12.43;;;6.83;;
73919;SDS011;62266;53.348;-1.496;2024-01-16T04:51:26;12.60;;;5.38;;
73919;SDS011;62266;53.348;-1.496;2024-01-16T04:54:10;15.40;;;7.00;;
73919;SDS011;62266;53.348;-1.496;2024-01-16T04:56:55;14.43;;;7.32;;
73919;SDS011;62266;53.348;-1.496;2024-01-16T04:59:39;9.63;;;5.47;;
73919;SDS011;62266;53.348;-1.496;2024-01-16T05:02:23;16.10;;;7.77;;
73919;SDS011;62266;53.348;-1.496;2024-01-16T05:05:07;12.82;;;5.78;;
73919;SDS011;62266;53.348;-1.496;2024-01-16T05:07:52;13.43;;;6.50;;
73919;SDS011;62266;53.348;-1.496;2024-01-16T05:10:37;10.43;;;5.85;;
73919;SDS011;62266;53.348;-1.496;2024-01-16T05:13:21;11.13;;;5.70;;
73919;SDS011;62266;53.348;-1.496;2024-01-16T05:16:05;9.93;;;5.33;;
73919;SDS011;62266;53.348;-1.496;2024-01-16T05:18:49;10.20;;;5.32;;
73919;SDS011;62266;53.348;-1.496;2024-01-16T05:21:34;9.55;;;5.00;;
73919;SDS011;62266;53.348;-1.496;2024-01-16T05:24:18;11.57;;;5.13;;
73919;SDS011;62266;53.348;-1.496;2024-01-16T05:27:03;8.90;;;4.47;;
73919;SDS011;62266;53.348;-1.496;2024-01-16T05:29:48;10.83;;;3.87;;
73919;SDS011;62266;53.348;-1.496;2024-01-16T05:32:32;7.25;;;3.78;;
73919;SDS011;62266;53.348;-1.496;2024-01-16T05:35:16;7.05;;;4.00;;
73919;SDS011;62266;53.348;-1.496;2024-01-16T05:38:01;9.52;;;5.10;;
73919;SDS011;62266;53.348;-1.496;2024-01-16T05:40:45;8.90;;;5.00;;
73919;SDS011;62266;53.348;-1.496;2024-01-16T05:43:29;8.50;;;5.13;;
73919;SDS011;62266;53.348;-1.496;2024-01-16T05:46:13;9.93;;;4.85;;
73919;SDS011;62266;53.348;-1.496;2024-01-16T05:48:57;10.70;;;5.53;;
73919;SDS011;62266;53.348;-1.496;2024-01-16T05:51:41;8.63;;;4.47;;
73919;SDS011;62266;53.348;-1.496;2024-01-16T05:54:25;7.65;;;4.10;;
73919;SDS011;62266;53.348;-1.496;2024-01-16T05:57:11;7.27;;;4.27;;
73919;SDS011;62266;53.348;-1.496;2024-01-16T05:59:57;8.95;;;4.30;;
73919;SDS011;62266;53.348;-1.496;2024-01-16T06:02:42;7.22;;;4.05;;
73919;SDS011;62266;53.348;-1.496;2024-01-16T06:05:26;8.50;;;4.38;;
73919;SDS011;62266;53.348;-1.496;2024-01-16T06:08:10;8.43;;;4.10;;
73919;SDS011;62266;53.348;-1.496;2024-01-16T06:10:54;5.23;;;3.33;;
73919;SDS011;62266;53.348;-1.496;2024-01-16T06:13:38;5.75;;;3.30;;
73919;SDS011;62266;53.348;-1.496;2024-01-16T06:16:22;5.00;;;2.60;;
73919;SDS011;62266;53.348;-1.496;2024-01-16T06:19:06;6.68;;;2.17;;
73919;SDS011;62266;53.348;-1.496;2024-01-16T06:21:51;4.82;;;1.75;;
73919;SDS011;62266;53.348;-1.496;2024-01-16T06:24:36;4.10;;;1.80;;
73919;SDS011;62266;53.348;-1.496;2024-01-16T06:27:21;3.15;;;1.70;;
73919;SDS011;62266;53.348;-1.496;2024-01-16T06:30:06;3.45;;;1.70;;
73919;SDS011;62266;53.348;-1.496;2024-01-16T06:32:52;3.80;;;1.45;;
73919;SDS011;62266;53.348;-1.496;2024-01-16T06:35:36;5.78;;;2.00;;
73919;SDS011;62266;53.348;-1.496;2024-01-16T06:38:20;4.83;;;1.47;;
73919;SDS011;62266;53.348;-1.496;2024-01-16T06:41:04;5.75;;;1.63;;
73919;SDS011;62266;53.348;-1.496;2024-01-16T06:43:48;3.60;;;1.35;;
73919;SDS011;62266;53.348;-1.496;2024-01-16T06:46:32;5.18;;;1.73;;
73919;SDS011;62266;53.348;-1.496;2024-01-16T06:49:16;3.05;;;1.52;;
73919;SDS011;62266;53.348;-1.496;2024-01-16T06:52:01;3.43;;;1.30;;
73919;SDS011;62266;53.348;-1.496;2024-01-16T06:54:45;3.22;;;1.35;;
73919;SDS011;62266;53.348;-1.496;2024-01-16T06:57:28;2.97;;;1.55;;
73919;SDS011;62266;53.348;-1.496;2024-01-16T07:00:13;3.17;;;1.30;;
73919;SDS011;62266;53.348;-1.496;2024-01-16T07:02:58;3.75;;;1.88;;
73919;SDS011;62266;53.348;-1.496;2024-01-16T07:05:42;4.27;;;2.13;;
73919;SDS011;62266;53.348;-1.496;2024-01-16T07:08:27;5.25;;;2.00;;
73919;SDS011;62266;53.348;-1.496;2024-01-16T07:11:11;4.18;;;2.13;;
73919;SDS011;62266;53.348;-1.496;2024-01-16T07:13:56;4.15;;;2.53;;
73919;SDS011;62266;53.348;-1.496;2024-01-16T07:16:40;5.95;;;2.60;;
73919;SDS011;62266;53.348;-1.496;2024-01-16T07:19:24;4.53;;;2.13;;
73919;SDS011;62266;53.348;-1.496;2024-01-16T07:22:08;6.78;;;2.50;;
73919;SDS011;62266;53.348;-1.496;2024-01-16T07:24:53;5.32;;;2.63;;
73919;SDS011;62266;53.348;-1.496;2024-01-16T07:27:37;5.85;;;3.25;;
73919;SDS011;62266;53.348;-1.496;2024-01-16T07:30:21;5.25;;;2.97;;
73919;SDS011;62266;53.348;-1.496;2024-01-16T07:33:05;6.57;;;3.10;;
73919;SDS011;62266;53.348;-1.496;2024-01-16T07:35:49;5.80;;;3.22;;
73919;SDS011;62266;53.348;-1.496;2024-01-16T07:38:34;6.72;;;3.60;;
73919;SDS011;62266;53.348;-1.496;2024-01-16T07:41:19;6.35;;;3.90;;
73919;SDS011;62266;53.348;-1.496;2024-01-16T07:44:03;7.70;;;4.25;;
73919;SDS011;62266;53.348;-1.496;2024-01-16T07:46:48;8.43;;;4.13;;
73919;SDS011;62266;53.348;-1.496;2024-01-16T07:49:32;7.15;;;3.97;;
73919;SDS011;62266;53.348;-1.496;2024-01-16T07:52:16;7.13;;;3.90;;
73919;SDS011;62266;53.348;-1.496;2024-01-16T07:55:00;9.18;;;4.88;;
73919;SDS011;62266;53.348;-1.496;2024-01-16T07:57:44;11.70;;;5.25;;
73919;SDS011;62266;53.348;-1.496;2024-01-16T08:00:28;9.97;;;4.47;;
73919;SDS011;62266;53.348;-1.496;2024-01-16T08:03:12;7.75;;;4.45;;
73919;SDS011;62266;53.348;-1.496;2024-01-16T08:05:58;8.52;;;4.97;;
73919;SDS011;62266;53.348;-1.496;2024-01-16T08:08:42;9.52;;;5.00;;
73919;SDS011;62266;53.348;-1.496;2024-01-16T08:11:26;8.35;;;4.70;;
73919;SDS011;62266;53.348;-1.496;2024-01-16T08:14:10;9.07;;;5.23;;
73919;SDS011;62266;53.348;-1.496;2024-01-16T08:16:54;7.97;;;5.03;;
73919;SDS011;62266;53.348;-1.496;2024-01-16T08:19:39;9.68;;;5.72;;
73919;SDS011;62266;53.348;-1.496;2024-01-16T08:22:24;9.18;;;5.60;;
73919;SDS011;62266;53.348;-1.496;2024-01-16T08:25:08;9.23;;;5.40;;
73919;SDS011;62266;53.348;-1.496;2024-01-16T08:27:51;10.50;;;5.23;;
73919;SDS011;62266;53.348;-1.496;2024-01-16T08:30:35;7.75;;;4.82;;
73919;SDS011;62266;53.348;-1.496;2024-01-16T08:33:20;8.70;;;5.03;;
73919;SDS011;62266;53.348;-1.496;2024-01-16T08:36:04;9.70;;;5.72;;
73919;SDS011;62266;53.348;-1.496;2024-01-16T08:38:48;10.02;;;5.68;;
73919;SDS011;62266;53.348;-1.496;2024-01-16T08:41:32;11.47;;;6.50;;
73919;SDS011;62266;53.348;-1.496;2024-01-16T08:44:16;9.10;;;5.28;;
73919;SDS011;62266;53.348;-1.496;2024-01-16T08:47:00;9.55;;;4.97;;
73919;SDS011;62266;53.348;-1.496;2024-01-16T08:49:48;7.53;;;4.93;;
73919;SDS011;62266;53.348;-1.496;2024-01-16T08:52:33;8.07;;;4.15;;
73919;SDS011;62266;53.348;-1.496;2024-01-16T08:55:17;9.40;;;5.17;;
73919;SDS011;62266;53.348;-1.496;2024-01-16T08:58:02;10.70;;;5.10;;
73919;SDS011;62266;53.348;-1.496;2024-01-16T09:00:46;6.97;;;4.40;;
73919;SDS011;62266;53.348;-1.496;2024-01-16T09:03:31;8.75;;;4.22;;
73919;SDS011;62266;53.348;-1.496;2024-01-16T09:06:16;8.52;;;4.50;;
73919;SDS011;62266;53.348;-1.496;2024-01-16T09:09:00;6.93;;;4.17;;
73919;SDS011;62266;53.348;-1.496;2024-01-16T09:11:44;6.78;;;3.80;;
73919;SDS011;62266;53.348;-1.496;2024-01-16T09:14:29;6.32;;;4.35;;
73919;SDS011;62266;53.348;-1.496;2024-01-16T09:17:22;8.10;;;4.45;;
73919;SDS011;62266;53.348;-1.496;2024-01-16T09:20:07;5.78;;;3.78;;
73919;SDS011;62266;53.348;-1.496;2024-01-16T09:22:52;6.23;;;3.77;;
73919;SDS011;62266;53.348;-1.496;2024-01-16T09:25:37;7.32;;;4.22;;
73919;SDS011;62266;53.348;-1.496;2024-01-16T09:28:21;7.53;;;4.15;;
73919;SDS011;62266;53.348;-1.496;2024-01-16T09:31:06;7.75;;;4.38;;
73919;SDS011;62266;53.348;-1.496;2024-01-16T09:33:51;8.85;;;4.25;;
73919;SDS011;62266;53.348;-1.496;2024-01-16T09:36:35;6.73;;;4.23;;
73919;SDS011;62266;53.348;-1.496;2024-01-16T09:39:20;6.75;;;4.05;;
73919;SDS011;62266;53.348;-1.496;2024-01-16T09:42:05;6.72;;;4.20;;
73919;SDS011;62266;53.348;-1.496;2024-01-16T09:44:49;6.53;;;3.85;;
73919;SDS011;62266;53.348;-1.496;2024-01-16T09:47:33;5.07;;;3.40;;
73919;SDS011;62266;53.348;-1.496;2024-01-16T09:50:18;8.70;;;4.33;;
73919;SDS011;62266;53.348;-1.496;2024-01-16T09:53:02;7.38;;;4.20;;
73919;SDS011;62266;53.348;-1.496;2024-01-16T09:55:48;10.27;;;4.55;;
73919;SDS011;62266;53.348;-1.496;2024-01-16T09:58:33;8.85;;;4.28;;
73919;SDS011;62266;53.348;-1.496;2024-01-16T10:01:18;8.02;;;4.70;;
73919;SDS011;62266;53.348;-1.496;2024-01-16T10:04:03;8.20;;;4.07;;
73919;SDS011;62266;53.348;-1.496;2024-01-16T10:06:47;7.88;;;4.18;;
73919;SDS011;62266;53.348;-1.496;2024-01-16T10:09:32;8.90;;;3.70;;
73919;SDS011;62266;53.348;-1.496;2024-01-16T10:12:16;5.05;;;3.08;;
73919;SDS011;62266;53.348;-1.496;2024-01-16T10:15:00;5.63;;;3.63;;
73919;SDS011;62266;53.348;-1.496;2024-01-16T10:17:44;7.80;;;3.47;;
73919;SDS011;62266;53.348;-1.496;2024-01-16T10:20:34;6.38;;;3.50;;
73919;SDS011;62266;53.348;-1.496;2024-01-16T10:23:22;5.40;;;3.13;;
73919;SDS011;62266;53.348;-1.496;2024-01-16T10:26:10;6.45;;;3.33;;
73919;SDS011;62266;53.348;-1.496;2024-01-16T10:28:56;6.13;;;2.80;;
73919;SDS011;62266;53.348;-1.496;2024-01-16T10:31:47;7.10;;;2.57;;
73919;SDS011;62266;53.348;-1.496;2024-01-16T10:34:31;4.45;;;2.60;;
73919;SDS011;62266;53.348;-1.496;2024-01-16T10:37:15;4.72;;;2.53;;
73919;SDS011;62266;53.348;-1.496;2024-01-16T10:40:00;5.05;;;2.42;;
73919;SDS011;62266;53.348;-1.496;2024-01-16T10:42:44;7.13;;;2.97;;
73919;SDS011;62266;53.348;-1.496;2024-01-16T10:45:30;4.87;;;2.93;;
73919;SDS011;62266;53.348;-1.496;2024-01-16T10:48:15;7.82;;;3.00;;
73919;SDS011;62266;53.348;-1.496;2024-01-16T10:50:59;5.07;;;2.15;;
73919;SDS011;62266;53.348;-1.496;2024-01-16T10:53:45;4.88;;;3.17;;
73919;SDS011;62266;53.348;-1.496;2024-01-16T10:56:30;4.18;;;2.00;;
73919;SDS011;62266;53.348;-1.496;2024-01-16T11:02:17;5.13;;;2.63;;
73919;SDS011;62266;53.348;-1.496;2024-01-16T11:05:04;3.88;;;2.20;;
73919;SDS011;62266;53.348;-1.496;2024-01-16T11:07:50;5.05;;;2.08;;
73919;SDS011;62266;53.348;-1.496;2024-01-16T11:10:34;4.85;;;2.60;;
73919;SDS011;62266;53.348;-1.496;2024-01-16T11:13:19;4.63;;;2.70;;
73919;SDS011;62266;53.348;-1.496;2024-01-16T11:16:04;5.45;;;2.42;;
73919;SDS011;62266;53.348;-1.496;2024-01-16T11:18:48;5.93;;;2.22;;
73919;SDS011;62266;53.348;-1.496;2024-01-16T11:21:32;5.05;;;2.47;;
73919;SDS011;62266;53.348;-1.496;2024-01-16T11:24:17;4.95;;;2.00;;
73919;SDS011;62266;53.348;-1.496;2024-01-16T11:27:01;3.53;;;1.93;;
73919;SDS011;62266;53.348;-1.496;2024-01-16T11:29:45;7.40;;;2.67;;
73919;SDS011;62266;53.348;-1.496;2024-01-16T11:32:34;7.57;;;3.42;;
73919;SDS011;62266;53.348;-1.496;2024-01-16T11:35:31;7.72;;;3.55;;
73919;SDS011;62266;53.348;-1.496;2024-01-16T11:38:16;9.68;;;3.55;;
73919;SDS011;62266;53.348;-1.496;2024-01-16T11:41:01;10.43;;;4.27;;
73919;SDS011;62266;53.348;-1.496;2024-01-16T11:43:45;11.40;;;4.53;;
73919;SDS011;62266;53.348;-1.496;2024-01-16T11:46:38;7.80;;;4.18;;
73919;SDS011;62266;53.348;-1.496;2024-01-16T11:50:11;9.38;;;4.13;;
73919;SDS011;62266;53.348;-1.496;2024-01-16T11:52:56;4.63;;;2.38;;
73919;SDS011;62266;53.348;-1.496;2024-01-16T11:56:46;11.83;;;3.10;;
73919;SDS011;62266;53.348;-1.496;2024-01-16T11:59:01;8.57;;;2.35;;
73919;SDS011;62266;53.348;-1.496;2024-01-16T12:01:52;4.72;;;1.90;;
73919;SDS011;62266;53.348;-1.496;2024-01-16T12:04:36;4.20;;;1.50;;
73919;SDS011;62266;53.348;-1.496;2024-01-16T12:07:20;3.97;;;1.80;;
73919;SDS011;62266;53.348;-1.496;2024-01-16T12:10:04;5.43;;;1.40;;
73919;SDS011;62266;53.348;-1.496;2024-01-16T12:12:51;2.75;;;0.90;;
73919;SDS011;62266;53.348;-1.496;2024-01-16T12:15:35;2.08;;;1.10;;
73919;SDS011;62266;53.348;-1.496;2024-01-16T12:18:20;8.90;;;1.55;;
73919;SDS011;62266;53.348;-1.496;2024-01-16T12:21:10;1.83;;;0.90;;
73919;SDS011;62266;53.348;-1.496;2024-01-16T12:23:55;2.60;;;1.17;;
73919;SDS011;62266;53.348;-1.496;2024-01-16T12:26:39;2.90;;;1.10;;
73919;SDS011;62266;53.348;-1.496;2024-01-16T12:29:24;5.38;;;1.35;;
73919;SDS011;62266;53.348;-1.496;2024-01-16T12:32:09;4.25;;;1.40;;
73919;SDS011;62266;53.348;-1.496;2024-01-16T12:34:53;2.80;;;1.20;;
73919;SDS011;62266;53.348;-1.496;2024-01-16T12:37:40;3.43;;;1.10;;
73919;SDS011;62266;53.348;-1.496;2024-01-16T12:40:24;3.35;;;1.10;;
73919;SDS011;62266;53.348;-1.496;2024-01-16T12:43:09;3.15;;;0.82;;
73919;SDS011;62266;53.348;-1.496;2024-01-16T12:45:56;2.13;;;0.95;;
73919;SDS011;62266;53.348;-1.496;2024-01-16T12:48:40;2.00;;;1.10;;
73919;SDS011;62266;53.348;-1.496;2024-01-16T12:51:24;2.30;;;1.17;;
73919;SDS011;62266;53.348;-1.496;2024-01-16T12:54:12;2.83;;;1.10;;
73919;SDS011;62266;53.348;-1.496;2024-01-16T12:56:58;3.55;;;1.05;;
73919;SDS011;62266;53.348;-1.496;2024-01-16T12:59:42;1.95;;;1.05;;
73919;SDS011;62266;53.348;-1.496;2024-01-16T13:02:26;4.38;;;1.27;;
73919;SDS011;62266;53.348;-1.496;2024-01-16T13:05:10;2.17;;;1.23;;
73919;SDS011;62266;53.348;-1.496;2024-01-16T13:08:01;3.70;;;1.33;;
73919;SDS011;62266;53.348;-1.496;2024-01-16T13:11:05;4.38;;;1.73;;
73919;SDS011;62266;53.348;-1.496;2024-01-16T13:13:58;2.67;;;1.67;;
73919;SDS011;62266;53.348;-1.496;2024-01-16T13:16:48;3.20;;;1.55;;
73919;SDS011;62266;53.348;-1.496;2024-01-16T13:19:32;5.27;;;3.47;;
73919;SDS011;62266;53.348;-1.496;2024-01-16T13:22:17;4.45;;;2.33;;
73919;SDS011;62266;53.348;-1.496;2024-01-16T13:25:01;5.00;;;1.67;;
73919;SDS011;62266;53.348;-1.496;2024-01-16T13:27:45;7.07;;;2.00;;
73919;SDS011;62266;53.348;-1.496;2024-01-16T13:30:29;4.45;;;1.90;;
73919;SDS011;62266;53.348;-1.496;2024-01-16T13:33:14;2.30;;;1.30;;
73919;SDS011;62266;53.348;-1.496;2024-01-16T13:35:59;4.30;;;1.67;;
73919;SDS011;62266;53.348;-1.496;2024-01-16T13:38:43;3.88;;;1.20;;
73919;SDS011;62266;53.348;-1.496;2024-01-16T13:41:28;2.75;;;1.45;;
73919;SDS011;62266;53.348;-1.496;2024-01-16T13:44:12;5.53;;;1.25;;
73919;SDS011;62266;53.348;-1.496;2024-01-16T13:46:56;2.40;;;1.23;;
73919;SDS011;62266;53.348;-1.496;2024-01-16T13:49:40;3.08;;;1.40;;
73919;SDS011;62266;53.348;-1.496;2024-01-16T13:52:24;3.88;;;1.05;;
73919;SDS011;62266;53.348;-1.496;2024-01-16T13:55:08;2.60;;;1.35;;
73919;SDS011;62266;53.348;-1.496;2024-01-16T13:57:53;3.17;;;1.38;;
73919;SDS011;62266;53.348;-1.496;2024-01-16T14:00:37;3.00;;;1.43;;
73919;SDS011;62266;53.348;-1.496;2024-01-16T14:03:21;4.05;;;2.15;;
73919;SDS011;62266;53.348;-1.496;2024-01-16T14:06:06;4.13;;;1.58;;
73919;SDS011;62266;53.348;-1.496;2024-01-16T14:08:50;4.18;;;1.52;;
73919;SDS011;62266;53.348;-1.496;2024-01-16T14:11:34;3.70;;;1.48;;
73919;SDS011;62266;53.348;-1.496;2024-01-16T14:14:18;3.57;;;1.57;;
73919;SDS011;62266;53.348;-1.496;2024-01-16T14:17:02;3.30;;;1.70;;
73919;SDS011;62266;53.348;-1.496;2024-01-16T14:19:46;6.00;;;2.00;;
73919;SDS011;62266;53.348;-1.496;2024-01-16T14:22:31;5.75;;;2.03;;
73919;SDS011;62266;53.348;-1.496;2024-01-16T14:25:15;5.35;;;1.92;;
73919;SDS011;62266;53.348;-1.496;2024-01-16T14:28:02;5.00;;;2.10;;
73919;SDS011;62266;53.348;-1.496;2024-01-16T14:30:47;3.22;;;1.63;;
73919;SDS011;62266;53.348;-1.496;2024-01-16T14:33:34;3.70;;;1.65;;
73919;SDS011;62266;53.348;-1.496;2024-01-16T14:36:19;8.70;;;2.30;;
73919;SDS011;62266;53.348;-1.496;2024-01-16T14:39:03;8.23;;;2.10;;
73919;SDS011;62266;53.348;-1.496;2024-01-16T14:41:47;2.40;;;1.50;;
73919;SDS011;62266;53.348;-1.496;2024-01-16T14:44:31;4.07;;;1.70;;
73919;SDS011;62266;53.348;-1.496;2024-01-16T14:47:15;1.63;;;1.05;;
73919;SDS011;62266;53.348;-1.496;2024-01-16T14:49:59;3.40;;;1.40;;
73919;SDS011;62266;53.348;-1.496;2024-01-16T14:52:43;5.28;;;1.50;;
73919;SDS011;62266;53.348;-1.496;2024-01-16T14:55:28;4.47;;;1.07;;
73919;SDS011;62266;53.348;-1.496;2024-01-16T14:58:12;1.90;;;1.10;;
73919;SDS011;62266;53.348;-1.496;2024-01-16T15:00:56;3.38;;;1.13;;
73919;SDS011;62266;53.348;-1.496;2024-01-16T15:03:40;5.18;;;1.10;;
73919;SDS011;62266;53.348;-1.496;2024-01-16T15:06:24;2.75;;;1.23;;
73919;SDS011;62266;53.348;-1.496;2024-01-16T15:09:09;4.63;;;1.00;;
73919;SDS011;62266;53.348;-1.496;2024-01-16T15:11:56;2.65;;;1.00;;
73919;SDS011;62266;53.348;-1.496;2024-01-16T15:14:40;1.55;;;0.95;;
73919;SDS011;62266;53.348;-1.496;2024-01-16T15:17:24;2.75;;;0.80;;
73919;SDS011;62266;53.348;-1.496;2024-01-16T15:20:08;3.33;;;0.98;;
73919;SDS011;62266;53.348;-1.496;2024-01-16T15:22:53;1.47;;;1.10;;
73919;SDS011;62266;53.348;-1.496;2024-01-16T15:25:38;4.25;;;1.40;;
73919;SDS011;62266;53.348;-1.496;2024-01-16T15:28:22;1.73;;;0.98;;
73919;SDS011;62266;53.348;-1.496;2024-01-16T15:31:07;4.25;;;1.35;;
73919;SDS011;62266;53.348;-1.496;2024-01-16T15:33:52;2.70;;;0.80;;
73919;SDS011;62266;53.348;-1.496;2024-01-16T15:36:36;3.37;;;1.07;;
73919;SDS011;62266;53.348;-1.496;2024-01-16T15:39:20;2.20;;;1.20;;
73919;SDS011;62266;53.348;-1.496;2024-01-16T15:42:05;2.10;;;1.35;;
73919;SDS011;62266;53.348;-1.496;2024-01-16T15:44:53;4.55;;;1.45;;
73919;SDS011;62266;53.348;-1.496;2024-01-16T15:47:38;4.85;;;1.20;;
73919;SDS011;62266;53.348;-1.496;2024-01-16T15:50:22;1.73;;;0.67;;
73919;SDS011;62266;53.348;-1.496;2024-01-16T15:53:06;4.07;;;1.15;;
73919;SDS011;62266;53.348;-1.496;2024-01-16T15:55:53;4.80;;;1.33;;
73919;SDS011;62266;53.348;-1.496;2024-01-16T15:58:37;3.65;;;1.13;;
73919;SDS011;62266;53.348;-1.496;2024-01-16T16:01:21;3.53;;;1.30;;
73919;SDS011;62266;53.348;-1.496;2024-01-16T16:04:06;2.63;;;1.20;;
73919;SDS011;62266;53.348;-1.496;2024-01-16T16:06:50;5.03;;;1.40;;
73919;SDS011;62266;53.348;-1.496;2024-01-16T16:09:35;6.72;;;1.35;;
73919;SDS011;62266;53.348;-1.496;2024-01-16T16:12:22;2.63;;;1.08;;
73919;SDS011;62266;53.348;-1.496;2024-01-16T16:15:06;3.00;;;1.50;;
73919;SDS011;62266;53.348;-1.496;2024-01-16T16:17:51;5.13;;;1.70;;
73919;SDS011;62266;53.348;-1.496;2024-01-16T16:20:36;2.45;;;1.30;;